sensor_id;sensor_type;location;lat;lon;timestamp;pressure;altitude;pressure_sealevel;temperature;humidity
61961;BME280;47923;42.506;24.192;2023-08-07T00:02:19;94720.56;;;17.06;61.92
61961;BME280;47923;42.506;24.192;2023-08-07T00:04:47;94850.06;;;17.92;61.95
61961;BME280;47923;42.506;24.192;2023-08-07T00:07:16;94858.00;;;17.86;61.88
61961;BME280;47923;42.506;24.192;2023-08-07T00:09:44;94837.97;;;17.69;61.44
61961;BME280;47923;42.506;24.192;2023-08-07T00:14:53;94774.66;;;17.35;60.92
61961;BME280;47923;42.506;24.192;2023-08-07T00:17:35;94859.06;;;17.92;60.99
61961;BME280;47923;42.506;24.192;2023-08-07T00:20:06;94860.31;;;17.88;61.30
61961;BME280;47923;42.506;24.192;2023-08-07T00:22:35;94632.88;;;16.38;61.58
61961;BME280;47923;42.506;24.192;2023-08-07T00:25:03;94807.75;;;17.37;61.73
61961;BME280;47923;42.506;24.192;2023-08-07T00:27:34;94798.31;;;17.42;61.25
61961;BME280;47923;42.506;24.192;2023-08-07T00:30:00;94871.22;;;17.88;61.71
61961;BME280;47923;42.506;24.192;2023-08-07T00:32:28;94785.59;;;17.31;61.65
61961;BME280;47923;42.506;24.192;2023-08-07T00:34:56;94830.22;;;17.45;62.54
61961;BME280;47923;42.506;24.192;2023-08-07T00:37:21;94735.09;;;16.53;62.68
61961;BME280;47923;42.506;24.192;2023-08-07T00:39:55;94824.84;;;17.41;63.04
61961;BME280;47923;42.506;24.192;2023-08-07T00:42:42;94458.59;;;14.86;63.58
61961;BME280;47923;42.506;24.192;2023-08-07T00:45:10;94874.44;;;17.59;64.07
61961;BME280;47923;42.506;24.192;2023-08-07T00:47:43;94873.97;;;17.64;63.78
61961;BME280;47923;42.506;24.192;2023-08-07T00:50:12;94738.34;;;16.68;64.16
61961;BME280;47923;42.506;24.192;2023-08-07T00:52:38;94753.13;;;16.70;64.39
61961;BME280;47923;42.506;24.192;2023-08-07T00:55:18;94837.44;;;17.11;64.45
61961;BME280;47923;42.506;24.192;2023-08-07T00:57:44;94613.22;;;15.76;64.59
61961;BME280;47923;42.506;24.192;2023-08-07T01:00:15;94737.63;;;16.64;63.87
61961;BME280;47923;42.506;24.192;2023-08-07T01:03:08;94867.28;;;17.46;63.91
61961;BME280;47923;42.506;24.192;2023-08-07T01:05:41;94867.69;;;17.44;63.71
61961;BME280;47923;42.506;24.192;2023-08-07T01:08:35;94863.66;;;17.29;63.49
61961;BME280;47923;42.506;24.192;2023-08-07T01:11:21;94859.63;;;17.37;63.69
61961;BME280;47923;42.506;24.192;2023-08-07T01:16:52;94871.19;;;17.21;64.18
61961;BME280;47923;42.506;24.192;2023-08-07T01:19:39;94878.25;;;17.19;64.11
61961;BME280;47923;42.506;24.192;2023-08-07T01:22:18;94843.72;;;17.08;63.45
61961;BME280;47923;42.506;24.192;2023-08-07T01:24:53;94840.16;;;17.11;63.93
61961;BME280;47923;42.506;24.192;2023-08-07T01:27:32;94853.16;;;17.27;63.74
61961;BME280;47923;42.506;24.192;2023-08-07T01:32:58;94865.16;;;17.33;62.59
61961;BME280;47923;42.506;24.192;2023-08-07T01:35:42;94816.41;;;17.08;61.72
61961;BME280;47923;42.506;24.192;2023-08-07T01:38:08;94824.25;;;16.83;61.81
61961;BME280;47923;42.506;24.192;2023-08-07T01:40:44;94739.72;;;16.52;61.38
61961;BME280;47923;42.506;24.192;2023-08-07T01:43:12;94855.91;;;17.27;61.92
61961;BME280;47923;42.506;24.192;2023-08-07T01:45:54;94880.34;;;17.34;61.34
61961;BME280;47923;42.506;24.192;2023-08-07T01:48:26;94810.72;;;16.99;61.33
61961;BME280;47923;42.506;24.192;2023-08-07T01:50:55;94878.25;;;17.42;61.20
61961;BME280;47923;42.506;24.192;2023-08-07T01:53:30;94881.34;;;17.44;61.17
61961;BME280;47923;42.506;24.192;2023-08-07T01:55:59;94872.28;;;17.27;61.67
61961;BME280;47923;42.506;24.192;2023-08-07T01:58:33;94881.88;;;17.35;61.95
61961;BME280;47923;42.506;24.192;2023-08-07T02:00:59;94885.44;;;17.32;62.48
61961;BME280;47923;42.506;24.192;2023-08-07T02:03:30;94865.13;;;17.10;62.69
61961;BME280;47923;42.506;24.192;2023-08-07T02:05:56;94887.13;;;17.26;63.32
61961;BME280;47923;42.506;24.192;2023-08-07T02:08:21;94756.53;;;16.24;63.43
61961;BME280;47923;42.506;24.192;2023-08-07T02:10:49;94901.34;;;17.14;63.69
61961;BME280;47923;42.506;24.192;2023-08-07T02:13:20;94905.59;;;17.15;64.10
61961;BME280;47923;42.506;24.192;2023-08-07T02:15:54;94798.75;;;16.39;64.42
61961;BME280;47923;42.506;24.192;2023-08-07T02:18:20;94517.22;;;14.53;64.06
61961;BME280;47923;42.506;24.192;2023-08-07T02:20:50;94905.47;;;16.99;64.38
61961;BME280;47923;42.506;24.192;2023-08-07T02:23:26;94913.22;;;17.00;63.46
61961;BME280;47923;42.506;24.192;2023-08-07T02:26:01;94820.31;;;16.57;63.12
61961;BME280;47923;42.506;24.192;2023-08-07T02:28:32;94874.81;;;16.88;63.55
61961;BME280;47923;42.506;24.192;2023-08-07T02:30:58;94890.56;;;17.03;63.48
61961;BME280;47923;42.506;24.192;2023-08-07T02:33:28;94934.41;;;17.20;63.10
61961;BME280;47923;42.506;24.192;2023-08-07T02:35:56;94921.25;;;17.11;63.66
61961;BME280;47923;42.506;24.192;2023-08-07T02:38:32;94833.16;;;16.56;62.81
61961;BME280;47923;42.506;24.192;2023-08-07T02:41:07;94817.75;;;16.46;62.41
61961;BME280;47923;42.506;24.192;2023-08-07T02:43:38;94924.81;;;17.08;63.37
61961;BME280;47923;42.506;24.192;2023-08-07T02:46:11;94935.31;;;17.09;62.55
61961;BME280;47923;42.506;24.192;2023-08-07T02:48:58;94943.06;;;17.11;62.51
61961;BME280;47923;42.506;24.192;2023-08-07T02:51:25;94916.13;;;16.90;62.99
61961;BME280;47923;42.506;24.192;2023-08-07T02:53:52;94908.09;;;17.06;62.98
61961;BME280;47923;42.506;24.192;2023-08-07T02:56:20;94911.91;;;17.12;62.29
61961;BME280;47923;42.506;24.192;2023-08-07T02:59:06;94842.25;;;16.77;62.04
61961;BME280;47923;42.506;24.192;2023-08-07T03:01:34;94861.69;;;16.79;62.42
61961;BME280;47923;42.506;24.192;2023-08-07T03:04:08;94859.75;;;16.79;62.61
61961;BME280;47923;42.506;24.192;2023-08-07T03:06:33;94935.63;;;17.15;62.53
61961;BME280;47923;42.506;24.192;2023-08-07T03:08:59;94922.28;;;17.21;62.30
61961;BME280;47923;42.506;24.192;2023-08-07T03:11:29;94754.09;;;16.02;62.28
61961;BME280;47923;42.506;24.192;2023-08-07T03:14:06;94855.16;;;16.73;62.25
61961;BME280;47923;42.506;24.192;2023-08-07T03:16:34;94888.16;;;17.09;60.98
61961;BME280;47923;42.506;24.192;2023-08-07T03:19:05;94744.28;;;16.09;61.51
61961;BME280;47923;42.506;24.192;2023-08-07T03:21:33;94825.06;;;16.53;61.72
61961;BME280;47923;42.506;24.192;2023-08-07T03:24:08;94927.78;;;17.17;61.96
61961;BME280;47923;42.506;24.192;2023-08-07T03:26:33;94931.34;;;17.14;61.88
61961;BME280;47923;42.506;24.192;2023-08-07T03:28:59;94726.78;;;15.79;61.54
61961;BME280;47923;42.506;24.192;2023-08-07T03:31:24;94915.50;;;17.05;61.31
61961;BME280;47923;42.506;24.192;2023-08-07T03:33:50;94935.41;;;17.29;61.21
61961;BME280;47923;42.506;24.192;2023-08-07T03:36:15;94831.13;;;16.64;60.51
61961;BME280;47923;42.506;24.192;2023-08-07T03:38:40;94550.97;;;14.90;59.82
61961;BME280;47923;42.506;24.192;2023-08-07T03:41:06;94934.00;;;17.45;59.49
61961;BME280;47923;42.506;24.192;2023-08-07T03:43:31;94932.91;;;17.38;59.04
61961;BME280;47923;42.506;24.192;2023-08-07T03:45:57;94941.66;;;17.53;58.39
61961;BME280;47923;42.506;24.192;2023-08-07T03:48:22;94949.06;;;17.53;58.27
61961;BME280;47923;42.506;24.192;2023-08-07T03:50:48;94955.97;;;17.61;57.65
61961;BME280;47923;42.506;24.192;2023-08-07T03:53:13;94964.16;;;17.61;58.35
61961;BME280;47923;42.506;24.192;2023-08-07T03:55:39;94947.75;;;17.61;58.15
61961;BME280;47923;42.506;24.192;2023-08-07T03:58:04;94952.41;;;17.64;57.88
61961;BME280;47923;42.506;24.192;2023-08-07T04:00:30;94887.91;;;17.23;57.71
61961;BME280;47923;42.506;24.192;2023-08-07T04:02:55;94963.41;;;17.84;56.73
61961;BME280;47923;42.506;24.192;2023-08-07T04:05:21;94939.84;;;18.93;53.29
61961;BME280;47923;42.506;24.192;2023-08-07T04:07:46;94346.66;;;18.42;43.79
61961;BME280;47923;42.506;24.192;2023-08-07T04:10:12;94582.75;;;22.34;38.12
61961;BME280;47923;42.506;24.192;2023-08-07T04:12:37;94894.41;;;26.20;34.41
61961;BME280;47923;42.506;24.192;2023-08-07T04:15:03;94771.38;;;26.51;32.52
61961;BME280;47923;42.506;24.192;2023-08-07T04:17:29;94944.50;;;28.34;31.19
61961;BME280;47923;42.506;24.192;2023-08-07T04:19:54;94804.09;;;28.07;29.50
61961;BME280;47923;42.506;24.192;2023-08-07T04:22:19;94846.59;;;28.92;28.27
61961;BME280;47923;42.506;24.192;2023-08-07T04:24:45;94714.81;;;28.78;27.54
61961;BME280;47923;42.506;24.192;2023-08-07T04:27:11;94958.72;;;30.58;26.98
61961;BME280;47923;42.506;24.192;2023-08-07T04:29:37;94916.22;;;30.91;26.25
61961;BME280;47923;42.506;24.192;2023-08-07T04:32:03;94944.41;;;31.94;25.08
61961;BME280;47923;42.506;24.192;2023-08-07T04:34:28;94936.13;;;32.46;24.48
61961;BME280;47923;42.506;24.192;2023-08-07T04:36:53;94884.69;;;32.08;23.97
61961;BME280;47923;42.506;24.192;2023-08-07T04:39:21;94896.78;;;32.91;22.69
61961;BME280;47923;42.506;24.192;2023-08-07T04:41:47;94853.78;;;32.94;22.49
61961;BME280;47923;42.506;24.192;2023-08-07T04:44:15;94970.25;;;33.98;21.82
61961;BME280;47923;42.506;24.192;2023-08-07T04:46:41;94986.03;;;34.26;21.51
61961;BME280;47923;42.506;24.192;2023-08-07T04:49:06;94897.88;;;33.12;21.93
61961;BME280;47923;42.506;24.192;2023-08-07T04:51:32;94989.25;;;34.60;21.09
61961;BME280;47923;42.506;24.192;2023-08-07T04:53:58;94986.19;;;34.58;21.21
61961;BME280;47923;42.506;24.192;2023-08-07T04:56:23;94987.38;;;35.43;20.70
61961;BME280;47923;42.506;24.192;2023-08-07T04:58:49;94920.09;;;36.23;19.02
61961;BME280;47923;42.506;24.192;2023-08-07T05:01:14;94846.91;;;36.02;19.29
61961;BME280;47923;42.506;24.192;2023-08-07T05:03:40;94861.16;;;36.17;18.74
61961;BME280;47923;42.506;24.192;2023-08-07T05:06:06;94981.97;;;37.23;18.82
61961;BME280;47923;42.506;24.192;2023-08-07T05:08:31;94984.22;;;37.04;18.83
61961;BME280;47923;42.506;24.192;2023-08-07T05:10:57;94973.41;;;34.38;21.28
61961;BME280;47923;42.506;24.192;2023-08-07T05:13:22;94972.88;;;33.19;22.56
61961;BME280;47923;42.506;24.192;2023-08-07T05:15:48;94979.88;;;35.14;21.02
61961;BME280;47923;42.506;24.192;2023-08-07T05:18:14;94965.19;;;34.46;21.03
61961;BME280;47923;42.506;24.192;2023-08-07T05:20:40;94953.84;;;31.68;24.07
61961;BME280;47923;42.506;24.192;2023-08-07T05:23:05;94973.63;;;29.63;27.28
61961;BME280;47923;42.506;24.192;2023-08-07T05:25:31;94969.91;;;30.63;26.12
61961;BME280;47923;42.506;24.192;2023-08-07T05:27:56;94989.31;;;33.70;22.83
61961;BME280;47923;42.506;24.192;2023-08-07T05:30:22;94976.25;;;36.55;19.43
61961;BME280;47923;42.506;24.192;2023-08-07T05:32:47;94970.28;;;36.85;18.84
61961;BME280;47923;42.506;24.192;2023-08-07T05:35:13;94935.72;;;37.74;17.54
61961;BME280;47923;42.506;24.192;2023-08-07T05:37:38;94969.88;;;38.40;17.05
61961;BME280;47923;42.506;24.192;2023-08-07T05:40:04;94968.09;;;39.38;16.81
61961;BME280;47923;42.506;24.192;2023-08-07T05:42:30;94738.84;;;37.78;16.13
61961;BME280;47923;42.506;24.192;2023-08-07T05:44:55;94928.03;;;38.52;16.74
61961;BME280;47923;42.506;24.192;2023-08-07T05:47:21;94968.03;;;38.72;17.23
61961;BME280;47923;42.506;24.192;2023-08-07T05:49:46;94610.94;;;36.51;16.48
61961;BME280;47923;42.506;24.192;2023-08-07T05:52:14;94970.88;;;39.15;16.38
61961;BME280;47923;42.506;24.192;2023-08-07T05:54:39;94873.56;;;38.29;16.87
61961;BME280;47923;42.506;24.192;2023-08-07T05:57:05;94840.75;;;38.18;16.36
61961;BME280;47923;42.506;24.192;2023-08-07T05:59:31;94865.69;;;38.71;16.20
61961;BME280;47923;42.506;24.192;2023-08-07T06:01:56;94876.72;;;38.69;16.33
61961;BME280;47923;42.506;24.192;2023-08-07T06:04:22;94973.06;;;39.68;15.50
61961;BME280;47923;42.506;24.192;2023-08-07T06:06:48;94904.34;;;38.63;16.21
61961;BME280;47923;42.506;24.192;2023-08-07T06:09:13;94974.56;;;40.00;15.56
61961;BME280;47923;42.506;24.192;2023-08-07T06:11:42;94981.19;;;40.02;15.44
61961;BME280;47923;42.506;24.192;2023-08-07T06:14:08;94982.66;;;39.81;15.83
61961;BME280;47923;42.506;24.192;2023-08-07T06:16:33;95001.16;;;40.43;15.72
61961;BME280;47923;42.506;24.192;2023-08-07T06:18:59;94977.34;;;41.57;14.74
61961;BME280;47923;42.506;24.192;2023-08-07T06:21:24;94941.91;;;40.45;15.14
61961;BME280;47923;42.506;24.192;2023-08-07T06:23:50;94987.78;;;40.51;15.79
61961;BME280;47923;42.506;24.192;2023-08-07T06:26:18;94940.31;;;41.55;14.79
61961;BME280;47923;42.506;24.192;2023-08-07T06:28:43;94962.59;;;42.50;14.07
61961;BME280;47923;42.506;24.192;2023-08-07T06:31:11;94943.06;;;42.89;13.92
61961;BME280;47923;42.506;24.192;2023-08-07T06:33:37;95000.03;;;42.74;14.09
61961;BME280;47923;42.506;24.192;2023-08-07T06:36:03;95003.22;;;42.78;13.78
61961;BME280;47923;42.506;24.192;2023-08-07T06:38:29;94980.31;;;43.28;13.37
61961;BME280;47923;42.506;24.192;2023-08-07T06:40:55;95012.56;;;43.23;13.18
61961;BME280;47923;42.506;24.192;2023-08-07T06:43:21;95017.00;;;42.22;13.65
61961;BME280;47923;42.506;24.192;2023-08-07T06:45:49;95007.66;;;41.79;14.00
61961;BME280;47923;42.506;24.192;2023-08-07T06:48:15;95011.41;;;41.09;14.63
61961;BME280;47923;42.506;24.192;2023-08-07T06:50:40;95032.66;;;41.33;14.64
61961;BME280;47923;42.506;24.192;2023-08-07T06:53:05;95023.72;;;42.52;13.69
61961;BME280;47923;42.506;24.192;2023-08-07T06:55:31;94925.88;;;42.35;13.50
61961;BME280;47923;42.506;24.192;2023-08-07T06:57:58;94949.56;;;42.30;13.57
61961;BME280;47923;42.506;24.192;2023-08-07T07:00:23;95019.16;;;41.49;14.17
61961;BME280;47923;42.506;24.192;2023-08-07T07:02:49;94953.16;;;40.75;14.29
61961;BME280;47923;42.506;24.192;2023-08-07T07:05:14;95022.44;;;41.37;13.59
61961;BME280;47923;42.506;24.192;2023-08-07T07:07:40;95000.91;;;41.67;14.09
61961;BME280;47923;42.506;24.192;2023-08-07T07:10:05;95046.22;;;43.88;12.46
61961;BME280;47923;42.506;24.192;2023-08-07T07:12:31;94987.59;;;43.04;12.36
61961;BME280;47923;42.506;24.192;2023-08-07T07:14:56;95042.09;;;43.27;12.83
61961;BME280;47923;42.506;24.192;2023-08-07T07:17:22;95025.59;;;43.26;12.60
61961;BME280;47923;42.506;24.192;2023-08-07T07:19:48;94933.31;;;42.65;12.78
61961;BME280;47923;42.506;24.192;2023-08-07T07:22:13;95029.63;;;42.71;13.19
61961;BME280;47923;42.506;24.192;2023-08-07T07:24:39;94851.13;;;41.81;12.94
61961;BME280;47923;42.506;24.192;2023-08-07T07:27:04;95030.22;;;43.66;12.29
61961;BME280;47923;42.506;24.192;2023-08-07T07:29:30;94896.41;;;44.00;11.78
61961;BME280;47923;42.506;24.192;2023-08-07T07:31:56;95034.38;;;44.55;12.07
61961;BME280;47923;42.506;24.192;2023-08-07T07:34:21;95022.56;;;44.88;12.06
61961;BME280;47923;42.506;24.192;2023-08-07T07:36:47;95022.69;;;44.15;12.29
61961;BME280;47923;42.506;24.192;2023-08-07T07:39:13;94967.47;;;43.10;12.41
61961;BME280;47923;42.506;24.192;2023-08-07T07:41:38;95023.38;;;43.07;12.41
61961;BME280;47923;42.506;24.192;2023-08-07T07:44:04;94990.59;;;42.54;12.64
61961;BME280;47923;42.506;24.192;2023-08-07T07:46:30;95030.03;;;42.25;12.56
61961;BME280;47923;42.506;24.192;2023-08-07T07:48:57;95026.28;;;43.34;12.66
61961;BME280;47923;42.506;24.192;2023-08-07T07:51:22;95026.16;;;44.79;11.34
61961;BME280;47923;42.506;24.192;2023-08-07T07:53:48;95038.34;;;45.37;10.47
61961;BME280;47923;42.506;24.192;2023-08-07T07:56:14;94994.72;;;45.85;10.19
61961;BME280;47923;42.506;24.192;2023-08-07T07:58:39;94943.25;;;44.75;10.76
61961;BME280;47923;42.506;24.192;2023-08-07T08:01:06;95043.13;;;45.15;11.14
61961;BME280;47923;42.506;24.192;2023-08-07T08:03:32;94998.78;;;43.64;11.94
61961;BME280;47923;42.506;24.192;2023-08-07T08:05:58;95046.38;;;43.90;11.39
61961;BME280;47923;42.506;24.192;2023-08-07T08:08:24;95037.94;;;43.55;11.67
61961;BME280;47923;42.506;24.192;2023-08-07T08:10:49;94968.75;;;43.26;12.16
61961;BME280;47923;42.506;24.192;2023-08-07T08:13:16;95055.78;;;42.87;12.50
61961;BME280;47923;42.506;24.192;2023-08-07T08:15:42;95039.56;;;42.62;12.23
61961;BME280;47923;42.506;24.192;2023-08-07T08:18:08;95055.13;;;42.96;12.23
61961;BME280;47923;42.506;24.192;2023-08-07T08:20:34;95054.28;;;42.68;11.55
61961;BME280;47923;42.506;24.192;2023-08-07T08:22:59;95011.41;;;42.57;11.84
61961;BME280;47923;42.506;24.192;2023-08-07T08:25:25;95026.53;;;42.94;12.03
61961;BME280;47923;42.506;24.192;2023-08-07T08:27:50;95034.41;;;43.65;11.47
61961;BME280;47923;42.506;24.192;2023-08-07T08:30:16;94925.56;;;42.83;11.45
61961;BME280;47923;42.506;24.192;2023-08-07T08:32:42;95031.69;;;44.21;10.40
61961;BME280;47923;42.506;24.192;2023-08-07T08:35:09;95032.50;;;45.06;10.51
61961;BME280;47923;42.506;24.192;2023-08-07T08:37:35;94988.47;;;45.58;9.86
61961;BME280;47923;42.506;24.192;2023-08-07T08:40:01;95039.50;;;45.73;9.91
61961;BME280;47923;42.506;24.192;2023-08-07T08:42:27;94820.19;;;43.16;9.25
61961;BME280;47923;42.506;24.192;2023-08-07T08:44:56;95032.44;;;43.84;10.44
61961;BME280;47923;42.506;24.192;2023-08-07T08:47:22;95031.84;;;43.86;10.29
61961;BME280;47923;42.506;24.192;2023-08-07T08:50:06;95020.38;;;43.05;10.58
61961;BME280;47923;42.506;24.192;2023-08-07T08:52:33;95010.06;;;44.45;9.90
61961;BME280;47923;42.506;24.192;2023-08-07T08:54:59;94980.41;;;44.01;9.26
61961;BME280;47923;42.506;24.192;2023-08-07T08:57:25;95010.09;;;44.64;8.97
61961;BME280;47923;42.506;24.192;2023-08-07T08:59:52;95024.56;;;45.05;9.01
61961;BME280;47923;42.506;24.192;2023-08-07T09:02:18;95024.84;;;45.38;8.95
61961;BME280;47923;42.506;24.192;2023-08-07T09:04:46;95000.78;;;45.60;8.83
61961;BME280;47923;42.506;24.192;2023-08-07T09:07:15;94992.88;;;45.39;9.67
61961;BME280;47923;42.506;24.192;2023-08-07T09:09:41;95027.06;;;44.91;9.44
61961;BME280;47923;42.506;24.192;2023-08-07T09:12:16;94641.53;;;43.68;8.92
61961;BME280;47923;42.506;24.192;2023-08-07T09:14:47;94990.84;;;46.12;8.94
61961;BME280;47923;42.506;24.192;2023-08-07T09:17:15;94997.97;;;44.92;8.22
61961;BME280;47923;42.506;24.192;2023-08-07T09:19:41;95004.78;;;45.86;8.77
61961;BME280;47923;42.506;24.192;2023-08-07T09:22:07;94979.84;;;44.59;8.60
61961;BME280;47923;42.506;24.192;2023-08-07T09:24:34;94921.47;;;45.68;8.17
61961;BME280;47923;42.506;24.192;2023-08-07T09:26:59;95000.94;;;46.65;8.19
61961;BME280;47923;42.506;24.192;2023-08-07T09:29:26;95017.06;;;45.98;8.60
61961;BME280;47923;42.506;24.192;2023-08-07T09:31:54;94817.25;;;45.46;8.30
61961;BME280;47923;42.506;24.192;2023-08-07T09:34:20;94961.13;;;46.36;8.49
61961;BME280;47923;42.506;24.192;2023-08-07T09:36:45;94910.16;;;46.21;7.90
61961;BME280;47923;42.506;24.192;2023-08-07T09:39:11;95005.03;;;45.20;8.27
61961;BME280;47923;42.506;24.192;2023-08-07T09:41:36;94993.94;;;45.05;8.21
61961;BME280;47923;42.506;24.192;2023-08-07T09:44:09;94979.47;;;45.71;8.39
61961;BME280;47923;42.506;24.192;2023-08-07T09:46:43;94996.75;;;46.88;8.07
61961;BME280;47923;42.506;24.192;2023-08-07T09:49:09;94966.22;;;46.16;8.33
61961;BME280;47923;42.506;24.192;2023-08-07T09:51:45;94995.13;;;46.32;8.11
61961;BME280;47923;42.506;24.192;2023-08-07T09:54:11;94932.16;;;44.59;9.10
61961;BME280;47923;42.506;24.192;2023-08-07T09:56:38;94870.94;;;45.18;8.38
61961;BME280;47923;42.506;24.192;2023-08-07T09:59:04;94998.78;;;46.23;8.84
61961;BME280;47923;42.506;24.192;2023-08-07T10:01:29;94969.09;;;46.80;8.56
61961;BME280;47923;42.506;24.192;2023-08-07T10:03:56;94967.56;;;45.74;8.51
61961;BME280;47923;42.506;24.192;2023-08-07T10:06:22;94799.97;;;44.62;9.93
61961;BME280;47923;42.506;24.192;2023-08-07T10:08:48;94843.13;;;45.29;8.65
61961;BME280;47923;42.506;24.192;2023-08-07T10:11:14;94984.84;;;46.39;9.24
61961;BME280;47923;42.506;24.192;2023-08-07T10:13:40;94679.69;;;44.23;8.28
61961;BME280;47923;42.506;24.192;2023-08-07T10:16:07;94963.16;;;45.42;9.00
61961;BME280;47923;42.506;24.192;2023-08-07T10:18:33;94986.88;;;45.26;9.40
61961;BME280;47923;42.506;24.192;2023-08-07T10:21:01;94988.84;;;45.33;8.93
61961;BME280;47923;42.506;24.192;2023-08-07T10:23:26;94940.03;;;45.89;9.20
61961;BME280;47923;42.506;24.192;2023-08-07T10:25:53;94966.47;;;45.89;8.71
61961;BME280;47923;42.506;24.192;2023-08-07T10:28:19;94949.53;;;44.92;9.04
61961;BME280;47923;42.506;24.192;2023-08-07T10:30:45;94832.94;;;42.70;9.32
61961;BME280;47923;42.506;24.192;2023-08-07T10:33:12;94955.19;;;43.88;9.71
61961;BME280;47923;42.506;24.192;2023-08-07T10:35:45;94952.94;;;44.33;9.73
61961;BME280;47923;42.506;24.192;2023-08-07T10:38:14;94781.41;;;43.38;9.35
61961;BME280;47923;42.506;24.192;2023-08-07T10:41:02;94947.50;;;42.06;10.73
61961;BME280;47923;42.506;24.192;2023-08-07T10:43:31;94854.16;;;40.52;11.32
61961;BME280;47923;42.506;24.192;2023-08-07T10:46:08;94945.94;;;39.96;12.04
61961;BME280;47923;42.506;24.192;2023-08-07T10:48:48;94935.03;;;38.66;13.32
61961;BME280;47923;42.506;24.192;2023-08-07T10:51:18;94935.19;;;38.25;14.26
61961;BME280;47923;42.506;24.192;2023-08-07T10:53:48;94926.41;;;37.79;14.29
61961;BME280;47923;42.506;24.192;2023-08-07T10:56:29;94939.44;;;37.69;13.60
61961;BME280;47923;42.506;24.192;2023-08-07T10:58:55;94946.03;;;36.82;14.25
61961;BME280;47923;42.506;24.192;2023-08-07T11:03:53;94934.97;;;34.95;16.18
61961;BME280;47923;42.506;24.192;2023-08-07T11:06:34;94893.94;;;34.11;16.49
61961;BME280;47923;42.506;24.192;2023-08-07T11:09:01;94792.81;;;33.41;17.59
61961;BME280;47923;42.506;24.192;2023-08-07T11:11:29;94922.56;;;34.04;17.23
61961;BME280;47923;42.506;24.192;2023-08-07T11:13:54;94925.72;;;33.95;17.44
61961;BME280;47923;42.506;24.192;2023-08-07T11:16:20;94868.19;;;33.39;17.32
61961;BME280;47923;42.506;24.192;2023-08-07T11:18:47;94924.88;;;33.45;17.07
61961;BME280;47923;42.506;24.192;2023-08-07T11:21:13;94871.22;;;32.70;17.16
61961;BME280;47923;42.506;24.192;2023-08-07T11:23:39;94910.78;;;32.91;16.71
61961;BME280;47923;42.506;24.192;2023-08-07T11:26:05;94900.38;;;32.86;17.66
61961;BME280;47923;42.506;24.192;2023-08-07T11:28:31;94917.25;;;32.69;18.19
61961;BME280;47923;42.506;24.192;2023-08-07T11:30:57;94904.41;;;32.43;18.53
61961;BME280;47923;42.506;24.192;2023-08-07T11:33:27;94897.13;;;32.12;18.34
61961;BME280;47923;42.506;24.192;2023-08-07T11:35:53;94908.84;;;32.05;18.62
61961;BME280;47923;42.506;24.192;2023-08-07T11:38:42;94823.44;;;31.52;19.22
61961;BME280;47923;42.506;24.192;2023-08-07T11:41:13;94911.63;;;32.11;18.97
61961;BME280;47923;42.506;24.192;2023-08-07T11:43:39;94920.03;;;32.00;18.66
61961;BME280;47923;42.506;24.192;2023-08-07T11:46:07;94919.06;;;31.80;19.04
61961;BME280;47923;42.506;24.192;2023-08-07T11:48:34;94878.00;;;31.25;19.62
61961;BME280;47923;42.506;24.192;2023-08-07T11:51:01;94914.50;;;31.55;19.44
61961;BME280;47923;42.506;24.192;2023-08-07T11:53:35;94901.81;;;31.48;19.03
61961;BME280;47923;42.506;24.192;2023-08-07T11:56:02;94762.34;;;30.42;19.62
61961;BME280;47923;42.506;24.192;2023-08-07T11:58:44;94889.91;;;31.08;19.35
61961;BME280;47923;42.506;24.192;2023-08-07T12:01:16;94890.94;;;31.22;20.06
61961;BME280;47923;42.506;24.192;2023-08-07T12:06:15;94876.69;;;30.75;19.91
61961;BME280;47923;42.506;24.192;2023-08-07T12:08:41;94865.28;;;30.79;20.52
61961;BME280;47923;42.506;24.192;2023-08-07T12:11:09;94887.34;;;30.94;20.25
61961;BME280;47923;42.506;24.192;2023-08-07T12:13:39;94895.69;;;30.77;20.95
61961;BME280;47923;42.506;24.192;2023-08-07T12:16:05;94892.91;;;30.83;20.62
61961;BME280;47923;42.506;24.192;2023-08-07T12:18:31;94888.34;;;30.79;20.67
61961;BME280;47923;42.506;24.192;2023-08-07T12:21:02;94890.13;;;30.83;20.61
61961;BME280;47923;42.506;24.192;2023-08-07T12:23:29;94740.69;;;29.86;20.83
61961;BME280;47923;42.506;24.192;2023-08-07T12:25:57;94887.56;;;30.85;20.37
61961;BME280;47923;42.506;24.192;2023-08-07T12:28:22;94875.94;;;30.80;21.00
61961;BME280;47923;42.506;24.192;2023-08-07T12:30:48;94829.75;;;30.57;21.26
61961;BME280;47923;42.506;24.192;2023-08-07T12:33:15;94725.25;;;29.96;21.35
61961;BME280;47923;42.506;24.192;2023-08-07T12:35:41;94825.94;;;30.54;21.64
61961;BME280;47923;42.506;24.192;2023-08-07T12:38:07;94871.09;;;30.81;21.47
61961;BME280;47923;42.506;24.192;2023-08-07T12:40:33;94763.56;;;30.13;21.40
61961;BME280;47923;42.506;24.192;2023-08-07T12:43:01;94815.53;;;30.38;21.85
61961;BME280;47923;42.506;24.192;2023-08-07T12:45:27;94871.09;;;30.81;21.10
61961;BME280;47923;42.506;24.192;2023-08-07T12:47:53;94851.31;;;30.68;21.63
61961;BME280;47923;42.506;24.192;2023-08-07T12:50:18;94878.69;;;30.75;22.16
61961;BME280;47923;42.506;24.192;2023-08-07T12:52:44;94854.34;;;30.70;21.11
61961;BME280;47923;42.506;24.192;2023-08-07T12:55:10;94866.28;;;30.70;21.06
61961;BME280;47923;42.506;24.192;2023-08-07T12:57:37;94860.47;;;30.74;20.93
61961;BME280;47923;42.506;24.192;2023-08-07T13:00:03;94829.97;;;30.48;21.76
61961;BME280;47923;42.506;24.192;2023-08-07T13:02:29;94772.41;;;30.11;21.61
61961;BME280;47923;42.506;24.192;2023-08-07T13:04:55;94872.38;;;30.80;21.54
61961;BME280;47923;42.506;24.192;2023-08-07T13:07:22;94768.34;;;30.07;21.71
61961;BME280;47923;42.506;24.192;2023-08-07T13:09:48;94869.78;;;30.60;21.81
61961;BME280;47923;42.506;24.192;2023-08-07T13:12:13;94729.28;;;29.79;21.57